sensor_id;sensor_type;location;lat;lon;timestamp;P1;durP1;ratioP1;P2;durP2;ratioP2
9436;SDS011;4757;59.334;18.034;2023-02-24T00:01:49;3.63;;;3.33;;
9436;SDS011;4757;59.334;18.034;2023-02-24T00:04:26;3.47;;;3.10;;
9436;SDS011;4757;59.334;18.034;2023-02-24T00:06:58;3.77;;;3.17;;
9436;SDS011;4757;59.334;18.034;2023-02-24T00:09:27;3.63;;;3.33;;
9436;SDS011;4757;59.334;18.034;2023-02-24T00:12:00;3.73;;;3.43;;
9436;SDS011;4757;59.334;18.034;2023-02-24T00:14:31;3.77;;;3.43;;
9436;SDS011;4757;59.334;18.034;2023-02-24T00:16:59;4.10;;;3.27;;
9436;SDS011;4757;59.334;18.034;2023-02-24T00:19:28;3.97;;;3.57;;
9436;SDS011;4757;59.334;18.034;2023-02-24T00:22:00;3.63;;;3.33;;
9436;SDS011;4757;59.334;18.034;2023-02-24T00:24:28;4.30;;;3.90;;
9436;SDS011;4757;59.334;18.034;2023-02-24T00:26:57;4.87;;;4.27;;
9436;SDS011;4757;59.334;18.034;2023-02-24T00:29:27;5.03;;;4.30;;
9436;SDS011;4757;59.334;18.034;2023-02-24T00:31:55;5.80;;;4.97;;
9436;SDS011;4757;59.334;18.034;2023-02-24T00:34:28;7.77;;;5.27;;
9436;SDS011;4757;59.334;18.034;2023-02-24T00:36:57;5.73;;;5.17;;
9436;SDS011;4757;59.334;18.034;2023-02-24T00:39:27;8.20;;;5.30;;
9436;SDS011;4757;59.334;18.034;2023-02-24T00:41:56;4.77;;;3.93;;
9436;SDS011;4757;59.334;18.034;2023-02-24T00:44:31;4.37;;;3.97;;
9436;SDS011;4757;59.334;18.034;2023-02-24T00:47:04;4.77;;;4.20;;
9436;SDS011;4757;59.334;18.034;2023-02-24T00:49:32;4.07;;;3.67;;
9436;SDS011;4757;59.334;18.034;2023-02-24T00:52:14;4.63;;;4.00;;
9436;SDS011;4757;59.334;18.034;2023-02-24T00:54:44;5.13;;;4.00;;
9436;SDS011;4757;59.334;18.034;2023-02-24T00:57:14;4.37;;;3.13;;
9436;SDS011;4757;59.334;18.034;2023-02-24T00:59:52;4.57;;;3.83;;
9436;SDS011;4757;59.334;18.034;2023-02-24T01:02:20;4.50;;;4.00;;
9436;SDS011;4757;59.334;18.034;2023-02-24T01:04:47;4.07;;;3.67;;
9436;SDS011;4757;59.334;18.034;2023-02-24T01:07:16;4.57;;;4.17;;
9436;SDS011;4757;59.334;18.034;2023-02-24T01:09:43;5.23;;;4.40;;
9436;SDS011;4757;59.334;18.034;2023-02-24T01:12:12;4.83;;;3.67;;
9436;SDS011;4757;59.334;18.034;2023-02-24T01:14:58;4.20;;;3.83;;
9436;SDS011;4757;59.334;18.034;2023-02-24T01:17:25;4.33;;;3.57;;
9436;SDS011;4757;59.334;18.034;2023-02-24T01:19:52;4.20;;;3.67;;
9436;SDS011;4757;59.334;18.034;2023-02-24T01:22:20;3.53;;;3.17;;
9436;SDS011;4757;59.334;18.034;2023-02-24T01:24:47;4.40;;;4.00;;
9436;SDS011;4757;59.334;18.034;2023-02-24T01:27:15;4.10;;;3.70;;
9436;SDS011;4757;59.334;18.034;2023-02-24T01:29:46;4.00;;;3.70;;
9436;SDS011;4757;59.334;18.034;2023-02-24T01:32:15;4.13;;;3.73;;
9436;SDS011;4757;59.334;18.034;2023-02-24T01:34:45;4.50;;;4.10;;
9436;SDS011;4757;59.334;18.034;2023-02-24T01:37:16;5.00;;;3.87;;
9436;SDS011;4757;59.334;18.034;2023-02-24T01:39:46;5.30;;;3.83;;
9436;SDS011;4757;59.334;18.034;2023-02-24T01:42:15;5.33;;;4.40;;
9436;SDS011;4757;59.334;18.034;2023-02-24T01:47:17;5.40;;;3.63;;
9436;SDS011;4757;59.334;18.034;2023-02-24T01:49:49;3.80;;;3.47;;
9436;SDS011;4757;59.334;18.034;2023-02-24T01:52:21;5.70;;;4.27;;
9436;SDS011;4757;59.334;18.034;2023-02-24T01:54:52;4.77;;;3.97;;
9436;SDS011;4757;59.334;18.034;2023-02-24T01:57:21;4.33;;;3.87;;
9436;SDS011;4757;59.334;18.034;2023-02-24T01:59:51;5.03;;;4.10;;
9436;SDS011;4757;59.334;18.034;2023-02-24T02:02:20;3.07;;;2.77;;
9436;SDS011;4757;59.334;18.034;2023-02-24T02:04:50;4.10;;;3.23;;
9436;SDS011;4757;59.334;18.034;2023-02-24T02:07:24;4.87;;;3.87;;
9436;SDS011;4757;59.334;18.034;2023-02-24T02:09:55;4.13;;;3.73;;
9436;SDS011;4757;59.334;18.034;2023-02-24T02:12:29;3.83;;;3.43;;
9436;SDS011;4757;59.334;18.034;2023-02-24T02:15:03;3.73;;;3.40;;
9436;SDS011;4757;59.334;18.034;2023-02-24T02:17:36;4.47;;;4.07;;
9436;SDS011;4757;59.334;18.034;2023-02-24T02:20:19;4.30;;;3.90;;
9436;SDS011;4757;59.334;18.034;2023-02-24T02:23:11;5.00;;;4.10;;
9436;SDS011;4757;59.334;18.034;2023-02-24T02:26:07;4.87;;;4.30;;
9436;SDS011;4757;59.334;18.034;2023-02-24T02:34:53;3.30;;;2.70;;
9436;SDS011;4757;59.334;18.034;2023-02-24T02:43:37;5.23;;;4.37;;
9436;SDS011;4757;59.334;18.034;2023-02-24T02:46:25;4.50;;;3.40;;
9436;SDS011;4757;59.334;18.034;2023-02-24T02:49:29;2.83;;;2.33;;
9436;SDS011;4757;59.334;18.034;2023-02-24T02:52:09;3.27;;;2.60;;
9436;SDS011;4757;59.334;18.034;2023-02-24T02:54:44;3.87;;;3.47;;
9436;SDS011;4757;59.334;18.034;2023-02-24T02:57:17;3.30;;;2.77;;
9436;SDS011;4757;59.334;18.034;2023-02-24T02:59:50;3.07;;;2.83;;
9436;SDS011;4757;59.334;18.034;2023-02-24T03:02:23;3.90;;;3.00;;
9436;SDS011;4757;59.334;18.034;2023-02-24T03:04:54;4.13;;;3.60;;
9436;SDS011;4757;59.334;18.034;2023-02-24T03:07:25;3.50;;;3.20;;
9436;SDS011;4757;59.334;18.034;2023-02-24T03:09:58;4.23;;;3.50;;
9436;SDS011;4757;59.334;18.034;2023-02-24T03:12:32;3.47;;;3.10;;
9436;SDS011;4757;59.334;18.034;2023-02-24T03:15:02;5.77;;;4.03;;
9436;SDS011;4757;59.334;18.034;2023-02-24T03:17:36;4.10;;;3.70;;
9436;SDS011;4757;59.334;18.034;2023-02-24T03:20:28;4.20;;;3.63;;
9436;SDS011;4757;59.334;18.034;2023-02-24T03:23:02;4.20;;;3.10;;
9436;SDS011;4757;59.334;18.034;2023-02-24T03:25:38;3.53;;;3.00;;
9436;SDS011;4757;59.334;18.034;2023-02-24T03:28:34;3.70;;;3.40;;
9436;SDS011;4757;59.334;18.034;2023-02-24T03:31:06;3.67;;;3.30;;
9436;SDS011;4757;59.334;18.034;2023-02-24T03:37:13;4.23;;;2.97;;
9436;SDS011;4757;59.334;18.034;2023-02-24T03:39:41;3.40;;;3.10;;
9436;SDS011;4757;59.334;18.034;2023-02-24T03:42:12;3.30;;;3.00;;
9436;SDS011;4757;59.334;18.034;2023-02-24T03:44:45;3.40;;;3.10;;
9436;SDS011;4757;59.334;18.034;2023-02-24T03:47:14;3.00;;;2.70;;
9436;SDS011;4757;59.334;18.034;2023-02-24T03:49:42;5.40;;;3.77;;
9436;SDS011;4757;59.334;18.034;2023-02-24T04:00:45;6.73;;;5.23;;
9436;SDS011;4757;59.334;18.034;2023-02-24T04:06:00;6.03;;;5.27;;
9436;SDS011;4757;59.334;18.034;2023-02-24T04:08:51;5.30;;;4.53;;
9436;SDS011;4757;59.334;18.034;2023-02-24T04:11:32;5.00;;;4.50;;
9436;SDS011;4757;59.334;18.034;2023-02-24T04:14:07;4.30;;;3.43;;
9436;SDS011;4757;59.334;18.034;2023-02-24T04:16:41;5.13;;;3.90;;
9436;SDS011;4757;59.334;18.034;2023-02-24T04:19:17;6.57;;;4.60;;
9436;SDS011;4757;59.334;18.034;2023-02-24T04:21:46;5.63;;;4.43;;
9436;SDS011;4757;59.334;18.034;2023-02-24T04:24:15;5.63;;;4.23;;
9436;SDS011;4757;59.334;18.034;2023-02-24T04:26:46;5.87;;;5.00;;
9436;SDS011;4757;59.334;18.034;2023-02-24T04:29:16;6.33;;;5.27;;
9436;SDS011;4757;59.334;18.034;2023-02-24T04:32:00;7.03;;;5.37;;
9436;SDS011;4757;59.334;18.034;2023-02-24T04:34:30;7.00;;;5.77;;
9436;SDS011;4757;59.334;18.034;2023-02-24T04:36:58;6.67;;;5.57;;
9436;SDS011;4757;59.334;18.034;2023-02-24T04:39:29;5.17;;;4.10;;
9436;SDS011;4757;59.334;18.034;2023-02-24T04:41:57;2.87;;;2.57;;
9436;SDS011;4757;59.334;18.034;2023-02-24T04:44:27;6.17;;;4.83;;
9436;SDS011;4757;59.334;18.034;2023-02-24T04:46:54;5.23;;;4.63;;
9436;SDS011;4757;59.334;18.034;2023-02-24T04:49:22;4.80;;;3.63;;
9436;SDS011;4757;59.334;18.034;2023-02-24T04:51:49;5.50;;;4.10;;
9436;SDS011;4757;59.334;18.034;2023-02-24T04:54:18;5.27;;;4.27;;
9436;SDS011;4757;59.334;18.034;2023-02-24T04:56:47;6.47;;;5.17;;
9436;SDS011;4757;59.334;18.034;2023-02-24T04:59:24;4.33;;;3.87;;
9436;SDS011;4757;59.334;18.034;2023-02-24T05:01:52;4.77;;;4.33;;
9436;SDS011;4757;59.334;18.034;2023-02-24T05:04:20;6.43;;;5.70;;
9436;SDS011;4757;59.334;18.034;2023-02-24T05:06:47;5.60;;;4.30;;
9436;SDS011;4757;59.334;18.034;2023-02-24T05:09:15;5.90;;;4.10;;
9436;SDS011;4757;59.334;18.034;2023-02-24T05:11:49;3.97;;;2.97;;
9436;SDS011;4757;59.334;18.034;2023-02-24T05:14:18;4.70;;;4.20;;
9436;SDS011;4757;59.334;18.034;2023-02-24T05:16:46;3.40;;;2.97;;
9436;SDS011;4757;59.334;18.034;2023-02-24T05:19:15;5.43;;;4.37;;
9436;SDS011;4757;59.334;18.034;2023-02-24T05:22:02;4.53;;;3.77;;
9436;SDS011;4757;59.334;18.034;2023-02-24T05:24:32;3.97;;;3.03;;
9436;SDS011;4757;59.334;18.034;2023-02-24T05:27:00;4.40;;;3.50;;
9436;SDS011;4757;59.334;18.034;2023-02-24T05:29:30;4.90;;;4.40;;
9436;SDS011;4757;59.334;18.034;2023-02-24T05:31:59;4.47;;;3.97;;
9436;SDS011;4757;59.334;18.034;2023-02-24T05:34:28;6.63;;;4.63;;
9436;SDS011;4757;59.334;18.034;2023-02-24T05:36:57;4.73;;;4.23;;
9436;SDS011;4757;59.334;18.034;2023-02-24T05:39:26;4.93;;;4.33;;
9436;SDS011;4757;59.334;18.034;2023-02-24T05:41:54;4.30;;;3.87;;
9436;SDS011;4757;59.334;18.034;2023-02-24T05:44:24;7.10;;;4.77;;
9436;SDS011;4757;59.334;18.034;2023-02-24T05:46:53;3.73;;;3.20;;
9436;SDS011;4757;59.334;18.034;2023-02-24T05:49:25;4.20;;;3.23;;
9436;SDS011;4757;59.334;18.034;2023-02-24T05:52:00;5.83;;;3.80;;
9436;SDS011;4757;59.334;18.034;2023-02-24T05:54:37;5.17;;;3.37;;
9436;SDS011;4757;59.334;18.034;2023-02-24T05:57:08;4.97;;;2.97;;
9436;SDS011;4757;59.334;18.034;2023-02-24T05:59:41;7.00;;;5.00;;
9436;SDS011;4757;59.334;18.034;2023-02-24T06:02:13;5.10;;;4.10;;
9436;SDS011;4757;59.334;18.034;2023-02-24T06:04:44;4.23;;;3.77;;
9436;SDS011;4757;59.334;18.034;2023-02-24T06:07:20;5.07;;;3.37;;
9436;SDS011;4757;59.334;18.034;2023-02-24T06:09:51;4.30;;;3.90;;
9436;SDS011;4757;59.334;18.034;2023-02-24T06:14:54;4.53;;;3.40;;
9436;SDS011;4757;59.334;18.034;2023-02-24T06:17:23;4.23;;;3.13;;
9436;SDS011;4757;59.334;18.034;2023-02-24T06:19:51;2.70;;;2.30;;
9436;SDS011;4757;59.334;18.034;2023-02-24T06:22:20;3.10;;;2.70;;
9436;SDS011;4757;59.334;18.034;2023-02-24T06:24:49;4.10;;;3.50;;
9436;SDS011;4757;59.334;18.034;2023-02-24T06:27:17;4.27;;;3.23;;
9436;SDS011;4757;59.334;18.034;2023-02-24T06:29:50;5.17;;;3.60;;
9436;SDS011;4757;59.334;18.034;2023-02-24T06:32:23;3.23;;;2.90;;
9436;SDS011;4757;59.334;18.034;2023-02-24T06:34:52;5.10;;;2.87;;
9436;SDS011;4757;59.334;18.034;2023-02-24T06:37:20;2.83;;;2.63;;
9436;SDS011;4757;59.334;18.034;2023-02-24T06:39:48;2.73;;;2.10;;
9436;SDS011;4757;59.334;18.034;2023-02-24T06:42:16;3.33;;;2.30;;
9436;SDS011;4757;59.334;18.034;2023-02-24T06:44:43;2.30;;;2.10;;
9436;SDS011;4757;59.334;18.034;2023-02-24T06:47:11;2.90;;;2.60;;
9436;SDS011;4757;59.334;18.034;2023-02-24T06:49:39;2.50;;;2.30;;
9436;SDS011;4757;59.334;18.034;2023-02-24T06:52:08;3.57;;;2.20;;
9436;SDS011;4757;59.334;18.034;2023-02-24T06:54:37;2.53;;;2.07;;
9436;SDS011;4757;59.334;18.034;2023-02-24T06:57:06;3.03;;;2.30;;
9436;SDS011;4757;59.334;18.034;2023-02-24T06:59:35;6.27;;;4.07;;
9436;SDS011;4757;59.334;18.034;2023-02-24T07:02:03;2.57;;;2.37;;
9436;SDS011;4757;59.334;18.034;2023-02-24T07:04:33;2.70;;;2.50;;
9436;SDS011;4757;59.334;18.034;2023-02-24T07:07:09;3.43;;;2.03;;
9436;SDS011;4757;59.334;18.034;2023-02-24T07:09:40;2.17;;;1.97;;
9436;SDS011;4757;59.334;18.034;2023-02-24T07:12:08;3.70;;;2.07;;
9436;SDS011;4757;59.334;18.034;2023-02-24T07:14:36;2.40;;;2.20;;
9436;SDS011;4757;59.334;18.034;2023-02-24T07:17:04;3.23;;;2.70;;
9436;SDS011;4757;59.334;18.034;2023-02-24T07:19:32;2.20;;;2.00;;
9436;SDS011;4757;59.334;18.034;2023-02-24T07:22:00;4.80;;;3.53;;
9436;SDS011;4757;59.334;18.034;2023-02-24T07:24:30;2.30;;;2.10;;
9436;SDS011;4757;59.334;18.034;2023-02-24T07:27:06;5.47;;;3.97;;
9436;SDS011;4757;59.334;18.034;2023-02-24T07:29:37;3.13;;;2.83;;
9436;SDS011;4757;59.334;18.034;2023-02-24T07:32:05;3.30;;;2.70;;
9436;SDS011;4757;59.334;18.034;2023-02-24T07:34:34;2.53;;;2.03;;
9436;SDS011;4757;59.334;18.034;2023-02-24T07:37:06;2.07;;;1.87;;
9436;SDS011;4757;59.334;18.034;2023-02-24T07:39:36;3.63;;;2.70;;
9436;SDS011;4757;59.334;18.034;2023-02-24T07:42:05;3.53;;;2.33;;
9436;SDS011;4757;59.334;18.034;2023-02-24T07:44:34;2.17;;;1.97;;
9436;SDS011;4757;59.334;18.034;2023-02-24T07:47:01;4.37;;;2.40;;
9436;SDS011;4757;59.334;18.034;2023-02-24T07:49:33;2.50;;;2.20;;
9436;SDS011;4757;59.334;18.034;2023-02-24T07:52:01;3.60;;;2.77;;
9436;SDS011;4757;59.334;18.034;2023-02-24T07:54:28;4.00;;;2.50;;
9436;SDS011;4757;59.334;18.034;2023-02-24T07:56:56;3.83;;;2.50;;
9436;SDS011;4757;59.334;18.034;2023-02-24T07:59:26;5.93;;;3.40;;
9436;SDS011;4757;59.334;18.034;2023-02-24T08:01:55;4.83;;;3.53;;
9436;SDS011;4757;59.334;18.034;2023-02-24T08:04:24;10.77;;;7.37;;
9436;SDS011;4757;59.334;18.034;2023-02-24T08:06:54;4.20;;;2.80;;
9436;SDS011;4757;59.334;18.034;2023-02-24T08:09:23;3.13;;;2.47;;
9436;SDS011;4757;59.334;18.034;2023-02-24T08:12:13;4.50;;;2.93;;
9436;SDS011;4757;59.334;18.034;2023-02-24T08:14:48;4.17;;;2.90;;
9436;SDS011;4757;59.334;18.034;2023-02-24T08:17:24;3.73;;;3.17;;
9436;SDS011;4757;59.334;18.034;2023-02-24T08:19:53;3.70;;;3.30;;
9436;SDS011;4757;59.334;18.034;2023-02-24T08:22:41;4.53;;;2.73;;
9436;SDS011;4757;59.334;18.034;2023-02-24T08:25:12;5.73;;;3.37;;
9436;SDS011;4757;59.334;18.034;2023-02-24T08:27:45;3.70;;;2.93;;
9436;SDS011;4757;59.334;18.034;2023-02-24T08:30:33;3.90;;;3.30;;
9436;SDS011;4757;59.334;18.034;2023-02-24T08:33:06;6.67;;;3.60;;
9436;SDS011;4757;59.334;18.034;2023-02-24T08:35:36;4.80;;;2.70;;
9436;SDS011;4757;59.334;18.034;2023-02-24T08:38:12;4.83;;;3.30;;
9436;SDS011;4757;59.334;18.034;2023-02-24T08:40:44;2.60;;;2.40;;
9436;SDS011;4757;59.334;18.034;2023-02-24T08:43:18;3.87;;;2.90;;
9436;SDS011;4757;59.334;18.034;2023-02-24T08:46:01;5.20;;;2.63;;
9436;SDS011;4757;59.334;18.034;2023-02-24T08:48:54;6.13;;;2.70;;
9436;SDS011;4757;59.334;18.034;2023-02-24T08:53:58;3.37;;;3.00;;
9436;SDS011;4757;59.334;18.034;2023-02-24T08:56:29;7.83;;;2.93;;
9436;SDS011;4757;59.334;18.034;2023-02-24T08:59:04;4.00;;;2.70;;
9436;SDS011;4757;59.334;18.034;2023-02-24T09:01:33;4.43;;;2.33;;
9436;SDS011;4757;59.334;18.034;2023-02-24T09:04:05;2.50;;;1.70;;
9436;SDS011;4757;59.334;18.034;2023-02-24T09:09:11;3.37;;;2.27;;
9436;SDS011;4757;59.334;18.034;2023-02-24T09:11:52;1.97;;;1.80;;
9436;SDS011;4757;59.334;18.034;2023-02-24T09:14:24;5.27;;;2.30;;
9436;SDS011;4757;59.334;18.034;2023-02-24T09:16:56;2.67;;;1.93;;
9436;SDS011;4757;59.334;18.034;2023-02-24T09:19:56;2.07;;;1.87;;
9436;SDS011;4757;59.334;18.034;2023-02-24T09:23:01;2.43;;;2.13;;
9436;SDS011;4757;59.334;18.034;2023-02-24T09:25:31;2.60;;;2.40;;
9436;SDS011;4757;59.334;18.034;2023-02-24T09:28:10;2.30;;;2.10;;
9436;SDS011;4757;59.334;18.034;2023-02-24T09:30:45;2.80;;;2.30;;
9436;SDS011;4757;59.334;18.034;2023-02-24T09:33:27;4.00;;;2.50;;
9436;SDS011;4757;59.334;18.034;2023-02-24T09:36:08;1.70;;;1.60;;
9436;SDS011;4757;59.334;18.034;2023-02-24T09:38:49;2.23;;;1.80;;
9436;SDS011;4757;59.334;18.034;2023-02-24T09:41:44;3.13;;;2.50;;
9436;SDS011;4757;59.334;18.034;2023-02-24T09:44:33;1.90;;;1.60;;
9436;SDS011;4757;59.334;18.034;2023-02-24T09:47:08;1.60;;;1.47;;
9436;SDS011;4757;59.334;18.034;2023-02-24T09:49:57;2.37;;;2.10;;
9436;SDS011;4757;59.334;18.034;2023-02-24T09:52:30;2.10;;;1.90;;
9436;SDS011;4757;59.334;18.034;2023-02-24T10:06:46;5.40;;;3.40;;
9436;SDS011;4757;59.334;18.034;2023-02-24T10:09:30;1.70;;;1.60;;
9436;SDS011;4757;59.334;18.034;2023-02-24T10:12:17;2.70;;;2.00;;
9436;SDS011;4757;59.334;18.034;2023-02-24T10:14:53;2.40;;;1.70;;
9436;SDS011;4757;59.334;18.034;2023-02-24T10:17:51;2.87;;;2.57;;
9436;SDS011;4757;59.334;18.034;2023-02-24T10:20:22;2.63;;;2.23;;
9436;SDS011;4757;59.334;18.034;2023-02-24T10:25:44;2.10;;;1.80;;
9436;SDS011;4757;59.334;18.034;2023-02-24T10:28:43;2.70;;;1.30;;
9436;SDS011;4757;59.334;18.034;2023-02-24T10:31:31;3.90;;;1.37;;
9436;SDS011;4757;59.334;18.034;2023-02-24T10:34:14;7.37;;;4.07;;
9436;SDS011;4757;59.334;18.034;2023-02-24T10:36:51;1.20;;;1.10;;
9436;SDS011;4757;59.334;18.034;2023-02-24T10:39:24;5.93;;;1.40;;
9436;SDS011;4757;59.334;18.034;2023-02-24T10:41:53;1.30;;;1.17;;
9436;SDS011;4757;59.334;18.034;2023-02-24T10:44:42;3.77;;;2.00;;
9436;SDS011;4757;59.334;18.034;2023-02-24T10:47:27;2.53;;;1.33;;
9436;SDS011;4757;59.334;18.034;2023-02-24T10:50:00;2.73;;;1.57;;
9436;SDS011;4757;59.334;18.034;2023-02-24T10:58:19;1.53;;;0.93;;
9436;SDS011;4757;59.334;18.034;2023-02-24T11:01:19;2.00;;;0.80;;
9436;SDS011;4757;59.334;18.034;2023-02-24T11:04:13;1.80;;;1.30;;
9436;SDS011;4757;59.334;18.034;2023-02-24T11:07:05;2.93;;;1.70;;
9436;SDS011;4757;59.334;18.034;2023-02-24T11:09:39;1.37;;;1.17;;
9436;SDS011;4757;59.334;18.034;2023-02-24T11:12:21;4.60;;;2.03;;
9436;SDS011;4757;59.334;18.034;2023-02-24T11:15:25;1.70;;;1.60;;
9436;SDS011;4757;59.334;18.034;2023-02-24T11:18:33;3.13;;;1.57;;
9436;SDS011;4757;59.334;18.034;2023-02-24T11:21:03;7.90;;;2.43;;
9436;SDS011;4757;59.334;18.034;2023-02-24T11:23:33;1.43;;;1.27;;
9436;SDS011;4757;59.334;18.034;2023-02-24T11:26:15;1.30;;;1.20;;
9436;SDS011;4757;59.334;18.034;2023-02-24T11:31:25;2.77;;;1.50;;
9436;SDS011;4757;59.334;18.034;2023-02-24T11:34:10;1.30;;;1.17;;
9436;SDS011;4757;59.334;18.034;2023-02-24T11:40:05;3.90;;;1.57;;
9436;SDS011;4757;59.334;18.034;2023-02-24T11:42:41;2.47;;;1.80;;
9436;SDS011;4757;59.334;18.034;2023-02-24T11:45:22;2.23;;;1.40;;
9436;SDS011;4757;59.334;18.034;2023-02-24T11:48:08;1.13;;;0.97;;
9436;SDS011;4757;59.334;18.034;2023-02-24T11:53:42;1.33;;;0.97;;
9436;SDS011;4757;59.334;18.034;2023-02-24T12:04:58;0.83;;;0.83;;
9436;SDS011;4757;59.334;18.034;2023-02-24T12:07:48;3.07;;;1.20;;
9436;SDS011;4757;59.334;18.034;2023-02-24T12:10:45;1.53;;;1.40;;
9436;SDS011;4757;59.334;18.034;2023-02-24T12:13:31;1.47;;;0.87;;
9436;SDS011;4757;59.334;18.034;2023-02-24T12:16:09;1.40;;;0.90;;
9436;SDS011;4757;59.334;18.034;2023-02-24T12:18:43;2.70;;;1.33;;
9436;SDS011;4757;59.334;18.034;2023-02-24T12:21:33;1.30;;;0.97;;
9436;SDS011;4757;59.334;18.034;2023-02-24T12:24:11;1.00;;;0.90;;
9436;SDS011;4757;59.334;18.034;2023-02-24T12:29:59;2.00;;;1.50;;
9436;SDS011;4757;59.334;18.034;2023-02-24T12:35:43;4.93;;;1.57;;
9436;SDS011;4757;59.334;18.034;2023-02-24T12:47:14;13.13;;;6.10;;
9436;SDS011;4757;59.334;18.034;2023-02-24T12:52:37;3.63;;;2.00;;
9436;SDS011;4757;59.334;18.034;2023-02-24T12:57:51;3.03;;;1.60;;
9436;SDS011;4757;59.334;18.034;2023-02-24T13:00:36;4.27;;;2.10;;
9436;SDS011;4757;59.334;18.034;2023-02-24T13:03:26;5.90;;;4.00;;
9436;SDS011;4757;59.334;18.034;2023-02-24T13:09:02;4.27;;;1.40;;
9436;SDS011;4757;59.334;18.034;2023-02-24T13:11:43;1.60;;;1.20;;
9436;SDS011;4757;59.334;18.034;2023-02-24T13:14:34;2.30;;;1.47;;
9436;SDS011;4757;59.334;18.034;2023-02-24T13:19:45;1.80;;;1.00;;
9436;SDS011;4757;59.334;18.034;2023-02-24T13:24:43;2.83;;;1.23;;
9436;SDS011;4757;59.334;18.034;2023-02-24T13:27:37;1.43;;;1.20;;
9436;SDS011;4757;59.334;18.034;2023-02-24T13:32:39;2.90;;;1.53;;
9436;SDS011;4757;59.334;18.034;2023-02-24T13:37:43;6.47;;;2.27;;
9436;SDS011;4757;59.334;18.034;2023-02-24T13:45:27;6.30;;;4.17;;
9436;SDS011;4757;59.334;18.034;2023-02-24T13:48:14;5.73;;;1.73;;
9436;SDS011;4757;59.334;18.034;2023-02-24T13:54:17;3.40;;;1.40;;
9436;SDS011;4757;59.334;18.034;2023-02-24T14:02:41;6.90;;;1.63;;
9436;SDS011;4757;59.334;18.034;2023-02-24T14:05:31;1.13;;;1.00;;
9436;SDS011;4757;59.334;18.034;2023-02-24T14:07:59;1.17;;;0.80;;
9436;SDS011;4757;59.334;18.034;2023-02-24T14:10:32;3.40;;;1.10;;
9436;SDS011;4757;59.334;18.034;2023-02-24T14:13:03;3.90;;;1.47;;
9436;SDS011;4757;59.334;18.034;2023-02-24T14:15:40;4.77;;;1.90;;
9436;SDS011;4757;59.334;18.034;2023-02-24T14:18:17;8.03;;;4.40;;
9436;SDS011;4757;59.334;18.034;2023-02-24T14:20:50;3.27;;;1.23;;
9436;SDS011;4757;59.334;18.034;2023-02-24T14:23:20;3.10;;;1.70;;
9436;SDS011;4757;59.334;18.034;2023-02-24T14:25:59;3.00;;;1.17;;
9436;SDS011;4757;59.334;18.034;2023-02-24T14:28:39;1.40;;;1.13;;
9436;SDS011;4757;59.334;18.034;2023-02-24T14:31:08;4.13;;;1.70;;
9436;SDS011;4757;59.334;18.034;2023-02-24T14:33:38;2.30;;;1.50;;
9436;SDS011;4757;59.334;18.034;2023-02-24T14:36:15;2.90;;;1.37;;
9436;SDS011;4757;59.334;18.034;2023-02-24T14:38:46;1.73;;;1.40;;
9436;SDS011;4757;59.334;18.034;2023-02-24T14:41:26;5.87;;;2.47;;
9436;SDS011;4757;59.334;18.034;2023-02-24T14:43:53;2.93;;;1.07;;
9436;SDS011;4757;59.334;18.034;2023-02-24T14:46:22;2.70;;;1.97;;
9436;SDS011;4757;59.334;18.034;2023-02-24T14:48:54;3.70;;;2.07;;
9436;SDS011;4757;59.334;18.034;2023-02-24T14:51:22;2.03;;;1.20;;
9436;SDS011;4757;59.334;18.034;2023-02-24T14:53:58;2.33;;;1.00;;
9436;SDS011;4757;59.334;18.034;2023-02-24T14:56:32;5.93;;;2.87;;
9436;SDS011;4757;59.334;18.034;2023-02-24T14:59:01;5.07;;;1.37;;
9436;SDS011;4757;59.334;18.034;2023-02-24T15:01:47;3.13;;;1.10;;
9436;SDS011;4757;59.334;18.034;2023-02-24T15:06:54;3.63;;;2.30;;
9436;SDS011;4757;59.334;18.034;2023-02-24T15:09:24;2.40;;;1.03;;
9436;SDS011;4757;59.334;18.034;2023-02-24T15:11:54;4.20;;;2.07;;
9436;SDS011;4757;59.334;18.034;2023-02-24T15:14:22;2.10;;;1.00;;
9436;SDS011;4757;59.334;18.034;2023-02-24T15:16:54;1.70;;;1.13;;
9436;SDS011;4757;59.334;18.034;2023-02-24T15:19:35;3.03;;;1.87;;
9436;SDS011;4757;59.334;18.034;2023-02-24T15:22:25;6.77;;;1.80;;
9436;SDS011;4757;59.334;18.034;2023-02-24T15:27:52;1.70;;;1.60;;
9436;SDS011;4757;59.334;18.034;2023-02-24T15:30:29;4.77;;;1.40;;
9436;SDS011;4757;59.334;18.034;2023-02-24T15:33:06;3.13;;;1.57;;
9436;SDS011;4757;59.334;18.034;2023-02-24T15:35:45;2.40;;;1.13;;
9436;SDS011;4757;59.334;18.034;2023-02-24T15:38:17;1.87;;;1.30;;
9436;SDS011;4757;59.334;18.034;2023-02-24T15:40:52;4.37;;;2.37;;
9436;SDS011;4757;59.334;18.034;2023-02-24T15:46:23;2.80;;;1.40;;
9436;SDS011;4757;59.334;18.034;2023-02-24T15:48:52;5.63;;;1.43;;
9436;SDS011;4757;59.334;18.034;2023-02-24T15:54:09;9.43;;;4.50;;
9436;SDS011;4757;59.334;18.034;2023-02-24T15:56:42;3.80;;;1.57;;
9436;SDS011;4757;59.334;18.034;2023-02-24T15:59:14;1.30;;;1.03;;
9436;SDS011;4757;59.334;18.034;2023-02-24T16:01:47;2.67;;;1.47;;
9436;SDS011;4757;59.334;18.034;2023-02-24T16:04:17;2.23;;;1.37;;
9436;SDS011;4757;59.334;18.034;2023-02-24T16:06:45;1.73;;;1.00;;
9436;SDS011;4757;59.334;18.034;2023-02-24T16:09:25;4.17;;;1.20;;
9436;SDS011;4757;59.334;18.034;2023-02-24T16:11:57;1.97;;;1.30;;
9436;SDS011;4757;59.334;18.034;2023-02-24T16:14:25;2.80;;;0.60;;
9436;SDS011;4757;59.334;18.034;2023-02-24T16:16:53;1.57;;;1.07;;
9436;SDS011;4757;59.334;18.034;2023-02-24T16:19:20;1.60;;;1.03;;
9436;SDS011;4757;59.334;18.034;2023-02-24T16:21:47;6.37;;;2.00;;
9436;SDS011;4757;59.334;18.034;2023-02-24T16:24:15;4.80;;;1.10;;
9436;SDS011;4757;59.334;18.034;2023-02-24T16:26:42;5.87;;;1.60;;
9436;SDS011;4757;59.334;18.034;2023-02-24T16:29:11;1.27;;;0.57;;
9436;SDS011;4757;59.334;18.034;2023-02-24T16:31:40;1.60;;;0.80;;
9436;SDS011;4757;59.334;18.034;2023-02-24T16:34:09;2.83;;;1.47;;
9436;SDS011;4757;59.334;18.034;2023-02-24T16:36:41;1.27;;;0.87;;
9436;SDS011;4757;59.334;18.034;2023-02-24T16:39:09;3.70;;;1.23;;
9436;SDS011;4757;59.334;18.034;2023-02-24T16:41:38;1.00;;;0.80;;
9436;SDS011;4757;59.334;18.034;2023-02-24T16:44:05;7.40;;;2.03;;
9436;SDS011;4757;59.334;18.034;2023-02-24T16:46:34;1.33;;;1.10;;
9436;SDS011;4757;59.334;18.034;2023-02-24T16:49:06;2.40;;;1.50;;
9436;SDS011;4757;59.334;18.034;2023-02-24T16:51:35;3.87;;;1.33;;
9436;SDS011;4757;59.334;18.034;2023-02-24T16:54:04;4.77;;;1.70;;
9436;SDS011;4757;59.334;18.034;2023-02-24T16:56:31;2.50;;;1.60;;
9436;SDS011;4757;59.334;18.034;2023-02-24T16:58:58;1.37;;;1.10;;
9436;SDS011;4757;59.334;18.034;2023-02-24T17:01:26;0.90;;;0.80;;
9436;SDS011;4757;59.334;18.034;2023-02-24T17:03:53;3.20;;;1.30;;
9436;SDS011;4757;59.334;18.034;2023-02-24T17:06:21;2.90;;;1.43;;
9436;SDS011;4757;59.334;18.034;2023-02-24T17:08:50;1.37;;;0.93;;
9436;SDS011;4757;59.334;18.034;2023-02-24T17:11:18;0.80;;;0.80;;
9436;SDS011;4757;59.334;18.034;2023-02-24T17:13:46;2.17;;;1.97;;
9436;SDS011;4757;59.334;18.034;2023-02-24T17:16:13;0.73;;;0.50;;
9436;SDS011;4757;59.334;18.034;2023-02-24T17:18:40;0.77;;;0.60;;
9436;SDS011;4757;59.334;18.034;2023-02-24T17:21:08;1.80;;;1.17;;
9436;SDS011;4757;59.334;18.034;2023-02-24T17:23:39;1.40;;;0.93;;
9436;SDS011;4757;59.334;18.034;2023-02-24T17:26:08;1.57;;;0.97;;
9436;SDS011;4757;59.334;18.034;2023-02-24T17:28:39;2.50;;;1.40;;
9436;SDS011;4757;59.334;18.034;2023-02-24T17:31:07;2.83;;;1.10;;
9436;SDS011;4757;59.334;18.034;2023-02-24T17:33:34;0.70;;;0.70;;
9436;SDS011;4757;59.334;18.034;2023-02-24T17:36:01;2.00;;;1.17;;
9436;SDS011;4757;59.334;18.034;2023-02-24T17:38:29;1.07;;;0.90;;
9436;SDS011;4757;59.334;18.034;2023-02-24T17:40:56;2.60;;;0.97;;
9436;SDS011;4757;59.334;18.034;2023-02-24T17:43:23;1.37;;;0.83;;
9436;SDS011;4757;59.334;18.034;2023-02-24T17:45:51;2.37;;;1.40;;
9436;SDS011;4757;59.334;18.034;2023-02-24T17:48:19;4.97;;;2.00;;
9436;SDS011;4757;59.334;18.034;2023-02-24T17:50:49;7.97;;;1.43;;
9436;SDS011;4757;59.334;18.034;2023-02-24T17:53:19;4.50;;;1.90;;
9436;SDS011;4757;59.334;18.034;2023-02-24T17:55:47;4.00;;;1.30;;